Time;durP1;ratioP1;P1;durP2;ratioP2;P2;SDS_P1;SDS_P2;PMS_P1;PMS_P2;Temp;Humidity;BMP_temperature;BMP_pressure;BME280_temperature;BME280_humidity;BME280_pressure;Samples;Min_cycle;Max_cycle;Signal;HPM_P1;HPM_P2
2023/07/31 00:00:46;;;;;;;;;;;17.30;92.80;;;;;;5094001;28;20074;-65
2023/07/31 00:03:12;;;;;;;;;;;17.40;92.50;;;;;;5111638;28;19998;-66
2023/07/31 00:05:39;;;;;;;;;;;17.50;91.90;;;;;;5112073;28;19908;-65
2023/07/31 00:08:06;;;;;;;;;;;17.50;91.90;;;;;;5091996;28;19908;-65
2023/07/31 00:10:33;;;;;;;;;;;17.50;92.00;;;;;;5091768;28;19908;-67
2023/07/31 00:13:00;;;;;;;;;;;17.70;91.70;;;;;;5085115;28;20375;-66
2023/07/31 00:15:26;;;;;;;;;;;17.60;91.90;;;;;;5111301;28;19911;-66
2023/07/31 00:17:53;;;;;;;;;;;17.70;91.80;;;;;;5079417;28;19981;-67
2023/07/31 00:20:19;;;;;;;;;;;17.80;91.70;;;;;;5111991;28;19961;-67
2023/07/31 00:22:46;;;;;;;;;;;17.90;91.50;;;;;;5111465;28;19968;-67
2023/07/31 00:25:13;;;;;;;;;;;18.00;91.60;;;;;;5111124;28;20511;-67
2023/07/31 00:27:44;;;;;;;;;;;18.00;91.60;;;;;;5111712;28;19961;-66
2023/07/31 00:30:11;;;;;;;;;;;18.10;91.20;;;;;;5111514;28;19912;-66
2023/07/31 00:32:37;;;;;;;;;;;18.20;91.10;;;;;;5109890;28;20379;-66
2023/07/31 00:35:04;;;;;;;;;;;18.20;91.10;;;;;;5109977;28;19919;-67
2023/07/31 00:37:31;;;;;;;;;;;18.30;90.70;;;;;;5100530;28;19930;-67
2023/07/31 00:39:57;;;;;;;;;;;18.40;90.70;;;;;;5115752;28;19924;-67
2023/07/31 00:42:24;;;;;;;;;;;18.30;90.40;;;;;;5112172;28;19964;-66
2023/07/31 00:44:51;;;;;;;;;;;18.30;90.30;;;;;;5113905;28;19926;-64
2023/07/31 00:47:18;;;;;;;;;;;18.40;90.30;;;;;;5112161;28;19916;-66
2023/07/31 00:49:44;;;;;;;;;;;18.50;89.80;;;;;;5097260;28;20317;-66
2023/07/31 00:52:11;;;;;;;;;;;18.60;89.90;;;;;;5115451;28;19907;-66
2023/07/31 00:54:38;;;;;;;;;;;18.70;89.00;;;;;;5114335;28;19919;-64
2023/07/31 00:57:05;;;;;;;;;;;18.80;89.20;;;;;;5105307;28;19916;-67
2023/07/31 00:59:31;;;;;;;;;;;18.80;88.70;;;;;;5111240;28;20285;-65
2023/07/31 01:01:58;;;;;;;;;;;18.90;89.10;;;;;;5114705;28;20554;-65
2023/07/31 01:04:25;;;;;;;;;;;18.90;88.30;;;;;;5114314;28;19907;-66
2023/07/31 01:07:00;;;;;;;;;;;19.00;87.80;;;;;;5115027;28;19907;-66
2023/07/31 01:09:37;;;;;;;;;;;19.00;87.70;;;;;;5114335;28;19908;-66
2023/07/31 01:12:04;;;;;;;;;;;19.10;87.10;;;;;;5096727;28;19907;-64
2023/07/31 01:14:31;;;;;;;;;;;19.20;87.80;;;;;;5114637;28;19954;-67
2023/07/31 01:16:57;;;;;;;;;;;19.20;87.70;;;;;;5104350;28;19915;-66
2023/07/31 01:19:26;;;;;;;;;;;19.30;87.20;;;;;;5094316;28;19920;-64
2023/07/31 01:22:11;;;;;;;;;;;19.40;86.80;;;;;;5086101;28;19918;-65
2023/07/31 01:24:56;;;;;;;;;;;19.50;86.00;;;;;;5113838;28;19908;-66
2023/07/31 01:27:25;;;;;;;;;;;19.60;86.20;;;;;;5113664;28;19908;-66
2023/07/31 01:29:54;;;;;;;;;;;19.70;85.90;;;;;;5114055;28;19941;-65
2023/07/31 01:32:22;;;;;;;;;;;19.80;85.20;;;;;;5113491;28;19912;-66
2023/07/31 01:34:49;;;;;;;;;;;19.80;84.40;;;;;;5103456;28;19923;-66
2023/07/31 01:37:15;;;;;;;;;;;20.00;84.20;;;;;;5106292;28;19914;-66
2023/07/31 01:39:42;;;;;;;;;;;19.90;83.90;;;;;;5109380;28;20287;-65
2023/07/31 01:42:08;;;;;;;;;;;20.00;83.70;;;;;;5114678;28;19998;-66
2023/07/31 01:44:35;;;;;;;;;;;20.00;84.20;;;;;;5094399;28;19920;-66
2023/07/31 01:47:02;;;;;;;;;;;20.10;83.40;;;;;;5096608;28;19943;-65
2023/07/31 01:49:28;;;;;;;;;;;20.20;83.20;;;;;;5094141;28;20352;-67
2023/07/31 01:51:55;;;;;;;;;;;20.30;82.70;;;;;;5094331;28;19908;-66
2023/07/31 01:54:22;;;;;;;;;;;20.40;82.70;;;;;;5094849;28;19914;-67
2023/07/31 01:56:48;;;;;;;;;;;20.40;81.80;;;;;;5112751;28;19954;-65
2023/07/31 01:59:15;;;;;;;;;;;20.50;82.10;;;;;;5114359;28;19955;-65
2023/07/31 02:01:41;;;;;;;;;;;20.70;82.30;;;;;;5114209;28;19947;-66
2023/07/31 02:04:08;;;;;;;;;;;20.90;82.10;;;;;;5113283;28;19916;-65
2023/07/31 02:06:35;;;;;;;;;;;20.90;80.80;;;;;;5111035;28;19983;-66
2023/07/31 02:09:01;;;;;;;;;;;21.10;81.00;;;;;;5096852;28;19916;-66
2023/07/31 02:11:28;;;;;;;;;;;21.20;80.50;;;;;;5111715;28;19950;-65
2023/07/31 02:13:55;;;;;;;;;;;21.30;79.30;;;;;;5113866;28;19908;-65
2023/07/31 02:16:21;;;;;;;;;;;21.30;79.70;;;;;;5108541;28;20280;-67
2023/07/31 02:18:48;;;;;;;;;;;21.30;79.80;;;;;;5093374;28;19912;-65
2023/07/31 02:21:14;;;;;;;;;;;21.40;80.00;;;;;;5094619;28;20369;-66
2023/07/31 02:23:41;;;;;;;;;;;21.40;78.70;;;;;;5093086;28;19970;-66
2023/07/31 02:26:08;;;;;;;;;;;21.40;79.40;;;;;;5096627;28;19985;-66
2023/07/31 02:28:34;;;;;;;;;;;21.40;79.50;;;;;;5113239;28;20364;-66
2023/07/31 02:31:01;;;;;;;;;;;21.40;78.80;;;;;;5113805;28;19961;-66
2023/07/31 02:33:28;;;;;;;;;;;21.30;78.30;;;;;;5112895;28;19973;-65
2023/07/31 02:35:54;;;;;;;;;;;21.20;78.20;;;;;;5113652;28;19934;-66
2023/07/31 02:38:21;;;;;;;;;;;21.30;78.10;;;;;;5113588;28;19912;-65
2023/07/31 02:40:48;;;;;;;;;;;21.40;79.10;;;;;;5104395;28;19920;-66
2023/07/31 02:43:14;;;;;;;;;;;21.40;78.60;;;;;;5102328;28;20372;-66
2023/07/31 02:45:41;;;;;;;;;;;21.50;78.30;;;;;;5112650;28;19952;-66
2023/07/31 02:48:07;;;;;;;;;;;21.50;77.30;;;;;;5112449;28;20356;-66
2023/07/31 02:50:35;;;;;;;;;;;21.70;77.70;;;;;;5112070;28;20355;-65
2023/07/31 02:53:02;;;;;;;;;;;21.90;77.60;;;;;;5113200;28;20002;-66
2023/07/31 02:55:28;;;;;;;;;;;22.30;76.80;;;;;;5113359;28;20343;-65
2023/07/31 02:57:55;;;;;;;;;;;22.70;75.00;;;;;;5112247;28;19915;-64
2023/07/31 03:00:22;;;;;;;;;;;22.90;75.60;;;;;;5103898;28;20369;-65
2023/07/31 03:02:48;;;;;;;;;;;22.70;74.60;;;;;;5092775;28;19957;-66
2023/07/31 03:05:15;;;;;;;;;;;22.60;75.10;;;;;;5107918;28;19912;-65
2023/07/31 03:07:41;;;;;;;;;;;22.50;74.20;;;;;;5112277;28;19908;-65
2023/07/31 03:10:08;;;;;;;;;;;22.70;74.50;;;;;;5111631;28;20360;-65
2023/07/31 03:12:35;;;;;;;;;;;23.10;73.60;;;;;;5112300;28;19940;-66
2023/07/31 03:15:02;;;;;;;;;;;23.80;73.20;;;;;;5112307;28;19908;-66
2023/07/31 03:17:28;;;;;;;;;;;24.70;71.30;;;;;;5097618;28;20054;-66
2023/07/31 03:19:55;;;;;;;;;;;25.50;70.10;;;;;;5109446;28;20372;-66
2023/07/31 03:22:21;;;;;;;;;;;25.70;68.70;;;;;;5112747;28;20002;-66
2023/07/31 03:24:48;;;;;;;;;;;25.30;68.60;;;;;;5112276;28;19911;-66
2023/07/31 03:27:15;;;;;;;;;;;25.20;69.60;;;;;;5111267;28;19992;-66
2023/07/31 03:29:41;;;;;;;;;;;25.50;70.00;;;;;;5107190;28;20044;-65
2023/07/31 03:32:08;;;;;;;;;;;26.70;67.30;;;;;;5111103;28;20002;-66
2023/07/31 03:34:34;;;;;;;;;;;28.00;65.00;;;;;;5112329;28;20257;-66
2023/07/31 03:37:01;;;;;;;;;;;28.90;63.80;;;;;;5101397;28;19916;-66
2023/07/31 03:39:28;;;;;;;;;;;29.10;62.60;;;;;;5092973;28;19916;-66
2023/07/31 03:41:54;;;;;;;;;;;29.70;61.60;;;;;;5099626;28;20031;-66
2023/07/31 03:44:21;;;;;;;;;;;30.90;60.00;;;;;;5111380;28;19963;-67
2023/07/31 03:46:48;;;;;;;;;;;31.50;58.50;;;;;;5111054;28;20007;-67
2023/07/31 03:49:14;;;;;;;;;;;32.30;56.60;;;;;;5111212;28;19922;-67
2023/07/31 03:51:41;;;;;;;;;;;33.50;55.50;;;;;;5098295;28;20014;-67
2023/07/31 03:54:08;;;;;;;;;;;34.00;54.00;;;;;;5091721;28;19908;-68
2023/07/31 03:56:35;;;;;;;;;;;34.10;53.30;;;;;;5091882;28;19916;-67
2023/07/31 03:59:01;;;;;;;;;;;34.70;52.60;;;;;;5092384;28;19919;-68
2023/07/31 04:01:28;;;;;;;;;;;35.00;52.10;;;;;;5111413;28;19928;-69
2023/07/31 04:03:54;;;;;;;;;;;35.40;51.40;;;;;;5112486;28;20261;-68
2023/07/31 04:06:21;;;;;;;;;;;35.40;50.40;;;;;;5111940;28;19912;-68
2023/07/31 04:08:48;;;;;;;;;;;34.90;50.90;;;;;;5109787;28;20045;-67
2023/07/31 04:11:14;;;;;;;;;;;34.80;50.40;;;;;;5114856;28;20372;-68
2023/07/31 04:13:41;;;;;;;;;;;35.10;50.40;;;;;;5116283;28;19911;-68
2023/07/31 04:16:07;;;;;;;;;;;34.80;50.00;;;;;;5113233;28;20288;-68
2023/07/31 04:18:34;;;;;;;;;;;35.00;50.00;;;;;;5095991;28;19908;-67
2023/07/31 04:21:03;;;;;;;;;;;35.40;50.20;;;;;;5108430;28;19919;-68
2023/07/31 04:23:30;;;;;;;;;;;35.70;49.80;;;;;;5098166;28;19907;-68
2023/07/31 04:25:57;;;;;;;;;;;35.60;49.70;;;;;;5114560;28;19914;-68
2023/07/31 04:28:25;;;;;;;;;;;35.60;50.10;;;;;;5107843;28;19994;-69
2023/07/31 04:30:53;;;;;;;;;;;34.90;49.90;;;;;;5114315;28;19911;-67
2023/07/31 04:33:19;;;;;;;;;;;34.00;50.50;;;;;;5115789;28;19939;-67
2023/07/31 04:35:53;;;;;;;;;;;32.10;51.80;;;;;;5115835;28;19919;-70
2023/07/31 04:38:20;;;;;;;;;;;30.60;53.30;;;;;;5104987;28;19913;-66
2023/07/31 04:40:47;;;;;;;;;;;29.30;55.00;;;;;;5108995;28;19972;-67
2023/07/31 04:43:13;;;;;;;;;;;28.30;55.10;;;;;;5115515;28;19912;-67
2023/07/31 04:45:42;;;;;;;;;;;27.50;55.60;;;;;;5115146;28;19947;-66
2023/07/31 04:48:09;;;;;;;;;;;26.90;56.80;;;;;;5114754;28;20002;-67
2023/07/31 04:50:35;;;;;;;;;;;26.20;58.10;;;;;;5115382;28;19914;-67
2023/07/31 04:53:02;;;;;;;;;;;25.60;59.10;;;;;;5115258;28;19912;-67
2023/07/31 04:55:29;;;;;;;;;;;25.30;59.80;;;;;;5115631;28;19952;-69
2023/07/31 04:57:55;;;;;;;;;;;25.10;60.10;;;;;;5106520;28;19912;-66
2023/07/31 05:00:22;;;;;;;;;;;25.10;60.00;;;;;;5094937;28;19916;-67
2023/07/31 05:02:48;;;;;;;;;;;25.40;60.20;;;;;;5101115;28;20280;-66
2023/07/31 05:05:15;;;;;;;;;;;25.30;59.80;;;;;;5115360;28;19915;-66
2023/07/31 05:07:42;;;;;;;;;;;25.10;60.60;;;;;;5105263;28;19918;-66
2023/07/31 05:10:09;;;;;;;;;;;25.00;61.30;;;;;;5115491;28;20260;-67
2023/07/31 05:12:35;;;;;;;;;;;24.80;60.30;;;;;;5095913;28;19915;-67
2023/07/31 05:15:02;;;;;;;;;;;24.80;61.40;;;;;;5114483;28;19986;-65
2023/07/31 05:17:29;;;;;;;;;;;24.60;60.90;;;;;;5107446;28;19970;-66
2023/07/31 05:19:55;;;;;;;;;;;24.50;60.70;;;;;;5114859;28;20406;-66
2023/07/31 05:22:22;;;;;;;;;;;24.60;61.70;;;;;;5112956;28;19912;-68
2023/07/31 05:24:49;;;;;;;;;;;24.80;60.70;;;;;;5114428;28;19954;-67
2023/07/31 05:27:18;;;;;;;;;;;24.90;62.20;;;;;;5108908;28;19941;-69
2023/07/31 05:29:45;;;;;;;;;;;24.70;60.90;;;;;;5114217;28;20011;-67
2023/07/31 05:32:12;;;;;;;;;;;24.70;61.30;;;;;;5113740;28;19995;-67
2023/07/31 05:34:39;;;;;;;;;;;24.60;60.40;;;;;;5114719;28;19911;-69
2023/07/31 05:37:05;;;;;;;;;;;24.60;62.50;;;;;;5085353;28;20356;-67
2023/07/31 05:39:32;;;;;;;;;;;24.60;61.20;;;;;;5109524;28;19960;-67
2023/07/31 05:41:59;;;;;;;;;;;24.80;61.20;;;;;;5113867;28;19943;-67
2023/07/31 05:44:25;;;;;;;;;;;25.00;62.30;;;;;;5112349;28;20006;-68
2023/07/31 05:46:52;;;;;;;;;;;25.10;62.50;;;;;;5112749;28;19912;-68
2023/07/31 05:49:19;;;;;;;;;;;25.40;61.00;;;;;;5095019;28;19908;-68
2023/07/31 05:51:45;;;;;;;;;;;25.60;60.30;;;;;;5113239;28;20602;-67
2023/07/31 05:54:12;;;;;;;;;;;25.60;60.60;;;;;;5112131;28;19915;-67
2023/07/31 05:56:39;;;;;;;;;;;25.60;60.70;;;;;;5112885;28;19908;-67
2023/07/31 05:59:05;;;;;;;;;;;25.60;62.00;;;;;;5112782;28;20056;-67
2023/07/31 06:01:32;;;;;;;;;;;25.60;61.20;;;;;;5109506;27;20646;-67
2023/07/31 06:03:58;;;;;;;;;;;25.50;62.30;;;;;;5109631;27;19911;-66
2023/07/31 06:06:25;;;;;;;;;;;25.70;61.30;;;;;;5111290;28;19912;-67
2023/07/31 06:08:52;;;;;;;;;;;26.10;59.60;;;;;;5112738;28;19912;-67
2023/07/31 06:11:19;;;;;;;;;;;26.20;59.50;;;;;;5112424;28;19908;-66
2023/07/31 06:13:47;;;;;;;;;;;26.60;59.40;;;;;;5112264;28;20421;-66
2023/07/31 06:16:14;;;;;;;;;;;27.30;58.90;;;;;;5106047;28;19918;-67
2023/07/31 06:18:41;;;;;;;;;;;28.00;58.10;;;;;;5080273;28;19912;-67
2023/07/31 06:21:09;;;;;;;;;;;28.90;57.10;;;;;;5112175;28;20384;-67
2023/07/31 06:23:36;;;;;;;;;;;30.00;55.70;;;;;;5112894;28;19955;-67
2023/07/31 06:26:03;;;;;;;;;;;30.80;55.40;;;;;;5110703;28;19965;-67
2023/07/31 06:28:30;;;;;;;;;;;31.60;53.30;;;;;;5111726;27;19911;-66
2023/07/31 06:30:56;;;;;;;;;;;31.60;53.60;;;;;;5108228;28;19916;-67
2023/07/31 06:33:23;;;;;;;;;;;30.90;53.30;;;;;;5115007;27;19943;-67
2023/07/31 06:35:50;;;;;;;;;;;30.10;54.30;;;;;;5110361;28;19919;-66
2023/07/31 06:38:16;;;;;;;;;;;28.80;55.10;;;;;;5111348;28;19965;-67
2023/07/31 06:40:43;;;;;;;;;;;27.80;56.70;;;;;;5111485;28;19920;-66
2023/07/31 06:43:10;;;;;;;;;;;26.80;57.50;;;;;;5110661;28;19920;-67
2023/07/31 06:45:37;;;;;;;;;;;26.00;58.80;;;;;;5107532;28;20352;-67
2023/07/31 06:48:04;;;;;;;;;;;25.30;59.60;;;;;;5110338;28;19916;-67
2023/07/31 06:50:31;;;;;;;;;;;24.40;61.00;;;;;;5099715;28;19937;-67
2023/07/31 06:52:58;;;;;;;;;;;23.80;62.30;;;;;;5110215;28;19915;-67
2023/07/31 06:55:26;;;;;;;;;;;23.30;63.50;;;;;;5110332;28;19916;-68
2023/07/31 06:57:54;;;;;;;;;;;22.90;64.10;;;;;;5112020;28;19916;-68
2023/07/31 07:00:21;;;;;;;;;;;22.50;65.20;;;;;;5109081;28;19931;-68
2023/07/31 07:02:48;;;;;;;;;;;22.30;66.70;;;;;;5105465;27;19911;-67
2023/07/31 07:05:15;;;;;;;;;;;22.00;67.70;;;;;;5111615;28;19963;-67
2023/07/31 07:07:41;;;;;;;;;;;21.70;68.30;;;;;;5101135;28;19915;-67
2023/07/31 07:10:08;;;;;;;;;;;21.50;70.00;;;;;;5112324;28;20392;-69
2023/07/31 07:12:35;;;;;;;;;;;21.30;70.70;;;;;;5112500;27;20010;-68
2023/07/31 07:15:02;;;;;;;;;;;21.00;72.00;;;;;;5098693;28;19912;-68
2023/07/31 07:17:32;;;;;;;;;;;20.70;72.90;;;;;;5107900;27;19982;-68
2023/07/31 07:20:00;;;;;;;;;;;20.50;73.80;;;;;;5112738;28;20237;-68
2023/07/31 07:22:27;;;;;;;;;;;20.30;74.60;;;;;;5111996;28;19952;-68
2023/07/31 07:24:54;;;;;;;;;;;20.00;75.40;;;;;;5111017;28;19922;-70
2023/07/31 07:27:20;;;;;;;;;;;19.90;76.20;;;;;;5105642;28;19920;-68
2023/07/31 07:29:47;;;;;;;;;;;19.70;76.80;;;;;;5111900;28;20375;-67
2023/07/31 07:32:14;;;;;;;;;;;19.50;77.70;;;;;;5111310;28;19998;-67
2023/07/31 07:34:41;;;;;;;;;;;19.40;78.40;;;;;;5131497;27;20352;-67
2023/07/31 07:37:07;;;;;;;;;;;19.10;79.00;;;;;;5103901;28;19958;-68
2023/07/31 07:39:34;;;;;;;;;;;19.00;79.90;;;;;;5110854;28;19915;-68
2023/07/31 07:42:00;;;;;;;;;;;18.90;80.60;;;;;;5111372;28;19916;-68
2023/07/31 07:44:27;;;;;;;;;;;18.70;81.70;;;;;;5108300;28;20355;-66
2023/07/31 07:46:54;;;;;;;;;;;18.70;82.20;;;;;;5102098;28;19934;-68
2023/07/31 07:49:22;;;;;;;;;;;18.60;82.10;;;;;;5108200;28;20391;-68
2023/07/31 07:51:49;;;;;;;;;;;18.50;82.30;;;;;;5111696;28;20353;-69
2023/07/31 07:54:21;;;;;;;;;;;18.40;82.10;;;;;;5111790;28;19914;-67
2023/07/31 07:56:47;;;;;;;;;;;18.30;82.40;;;;;;5107763;28;20038;-69
2023/07/31 07:59:14;;;;;;;;;;;18.20;83.30;;;;;;5107042;28;19916;-69
2023/07/31 08:01:40;;;;;;;;;;;18.10;83.90;;;;;;5111858;28;19908;-68
2023/07/31 08:04:07;;;;;;;;;;;18.10;84.30;;;;;;5111786;28;19911;-67
2023/07/31 08:06:34;;;;;;;;;;;18.00;84.50;;;;;;5089861;28;19916;-67
2023/07/31 08:09:05;;;;;;;;;;;17.90;85.20;;;;;;5110792;28;19911;-66
2023/07/31 08:11:35;;;;;;;;;;;17.80;85.80;;;;;;5109399;28;20399;-64
2023/07/31 08:14:02;;;;;;;;;;;17.80;86.00;;;;;;5111635;28;19912;-66
2023/07/31 08:16:29;;;;;;;;;;;17.60;86.40;;;;;;5094034;28;19927;-67
2023/07/31 08:18:55;;;;;;;;;;;17.60;87.00;;;;;;5101853;28;19912;-67
2023/07/31 08:21:22;;;;;;;;;;;17.50;86.30;;;;;;5100226;28;19912;-68
2023/07/31 08:23:49;;;;;;;;;;;17.50;86.30;;;;;;5096970;28;19912;-66
2023/07/31 08:26:19;;;;;;;;;;;17.40;86.90;;;;;;5090764;28;19912;-68
2023/07/31 08:28:46;;;;;;;;;;;17.40;87.20;;;;;;5100854;28;20374;-68
2023/07/31 08:31:12;;;;;;;;;;;17.30;87.90;;;;;;5101855;28;19909;-66
2023/07/31 08:33:40;;;;;;;;;;;17.20;88.40;;;;;;5098728;28;19957;-68
2023/07/31 08:36:06;;;;;;;;;;;17.10;88.50;;;;;;5110265;28;20306;-67
2023/07/31 08:38:33;;;;;;;;;;;17.10;89.80;;;;;;5097604;28;20000;-68
2023/07/31 08:41:00;;;;;;;;;;;16.90;90.20;;;;;;5102849;28;19923;-67
2023/07/31 08:43:27;;;;;;;;;;;16.90;90.40;;;;;;5102549;28;19927;-69
2023/07/31 08:45:53;;;;;;;;;;;16.80;90.80;;;;;;5110084;28;19942;-68
2023/07/31 08:48:21;;;;;;;;;;;16.80;90.80;;;;;;5091666;28;20023;-68
2023/07/31 08:50:48;;;;;;;;;;;16.70;91.00;;;;;;5100290;28;19919;-66
2023/07/31 08:53:16;;;;;;;;;;;16.70;91.10;;;;;;5089252;28;20052;-68
2023/07/31 08:55:43;;;;;;;;;;;16.70;91.30;;;;;;5092684;28;20376;-67
2023/07/31 08:58:10;;;;;;;;;;;16.60;91.40;;;;;;5113982;27;20351;-67
2023/07/31 09:00:37;;;;;;;;;;;16.60;91.50;;;;;;5114447;28;19916;-68
2023/07/31 09:03:08;;;;;;;;;;;16.50;91.50;;;;;;5115584;27;19920;-68
2023/07/31 09:05:36;;;;;;;;;;;16.40;91.70;;;;;;5113392;27;19908;-68
2023/07/31 09:08:04;;;;;;;;;;;16.30;91.90;;;;;;5114085;27;20279;-68
2023/07/31 09:10:31;;;;;;;;;;;16.30;91.90;;;;;;5103320;28;19912;-68
2023/07/31 09:12:58;;;;;;;;;;;16.30;92.10;;;;;;5107934;28;20253;-68
2023/07/31 09:15:25;;;;;;;;;;;16.30;92.20;;;;;;5113111;28;19923;-66
2023/07/31 09:18:00;;;;;;;;;;;16.30;92.20;;;;;;5096869;28;19916;-67
2023/07/31 09:20:26;;;;;;;;;;;16.20;92.20;;;;;;5102456;28;19926;-67
2023/07/31 09:22:53;;;;;;;;;;;16.10;92.20;;;;;;5082131;28;20427;-70
2023/07/31 09:25:21;;;;;;;;;;;16.10;92.40;;;;;;5112874;27;19912;-66
2023/07/31 09:27:48;;;;;;;;;;;16.10;92.50;;;;;;5112014;28;19915;-65
2023/07/31 09:30:15;;;;;;;;;;;16.00;92.80;;;;;;5102899;28;19927;-67
2023/07/31 09:32:43;;;;;;;;;;;16.00;93.10;;;;;;5110815;28;19964;-67
2023/07/31 09:35:29;;;;;;;;;;;16.00;93.10;;;;;;5131958;27;19912;-68
2023/07/31 09:37:57;;;;;;;;;;;15.90;93.10;;;;;;5098019;28;19908;-66
2023/07/31 09:40:28;;;;;;;;;;;15.90;93.40;;;;;;5113732;28;19972;-66
2023/07/31 09:42:58;;;;;;;;;;;15.80;93.70;;;;;;5109812;28;19919;-67
2023/07/31 09:45:25;;;;;;;;;;;15.70;94.10;;;;;;5095983;27;19927;-66
2023/07/31 09:47:52;;;;;;;;;;;15.70;94.40;;;;;;5111721;28;19908;-66
2023/07/31 09:50:20;;;;;;;;;;;15.70;94.10;;;;;;5113302;28;19916;-66
2023/07/31 09:52:47;;;;;;;;;;;15.60;94.40;;;;;;5114230;28;19912;-66
2023/07/31 09:55:14;;;;;;;;;;;15.50;94.60;;;;;;5113527;27;20433;-67
2023/07/31 09:57:42;;;;;;;;;;;15.50;94.80;;;;;;5098261;28;19995;-66
2023/07/31 10:00:09;;;;;;;;;;;15.40;94.80;;;;;;5107490;28;20372;-66
2023/07/31 10:02:37;;;;;;;;;;;15.40;94.90;;;;;;5113411;28;19911;-65
2023/07/31 10:05:04;;;;;;;;;;;15.30;95.30;;;;;;5110724;27;19954;-66
2023/07/31 10:07:31;;;;;;;;;;;15.30;95.30;;;;;;5112862;28;19991;-66
2023/07/31 10:09:59;;;;;;;;;;;15.30;95.20;;;;;;5112979;27;19908;-66
2023/07/31 10:12:29;;;;;;;;;;;15.30;95.10;;;;;;5111848;28;19922;-65
2023/07/31 10:14:56;;;;;;;;;;;15.30;95.40;;;;;;5112506;28;19915;-66
2023/07/31 10:17:23;;;;;;;;;;;15.10;95.60;;;;;;5111601;28;19968;-67
2023/07/31 10:19:50;;;;;;;;;;;15.20;96.00;;;;;;5108398;28;20421;-66
2023/07/31 10:22:18;;;;;;;;;;;15.10;96.00;;;;;;5111374;28;19915;-66
2023/07/31 10:24:49;;;;;;;;;;;15.10;96.10;;;;;;5112143;28;19915;-68
2023/07/31 10:27:16;;;;;;;;;;;15.10;95.70;;;;;;5100539;28;20379;-67
2023/07/31 10:29:44;;;;;;;;;;;15.10;95.90;;;;;;5101261;28;19908;-65
2023/07/31 10:32:11;;;;;;;;;;;15.10;94.60;;;;;;5109719;28;19967;-65
2023/07/31 10:34:40;;;;;;;;;;;15.20;94.40;;;;;;5113097;28;19930;-66
2023/07/31 10:37:25;;;;;;;;;;;15.30;92.90;;;;;;5101751;28;20411;-66
2023/07/31 10:40:04;;;;;;;;;;;15.40;92.80;;;;;;5104503;28;20322;-66
2023/07/31 10:42:30;;;;;;;;;;;15.50;92.20;;;;;;5092352;28;19912;-65
2023/07/31 10:45:01;;;;;;;;;;;15.60;92.30;;;;;;5104437;27;19924;-67
2023/07/31 10:47:28;;;;;;;;;;;15.60;91.60;;;;;;5098857;28;19915;-66
2023/07/31 10:50:12;;;;;;;;;;;15.60;91.90;;;;;;5104443;28;20410;-67
2023/07/31 10:52:39;;;;;;;;;;;15.70;91.60;;;;;;5112383;28;20006;-66
2023/07/31 10:55:34;;;;;;;;;;;15.70;91.60;;;;;;5112921;28;19912;-66
2023/07/31 10:58:12;;;;;;;;;;;15.70;91.40;;;;;;5082612;28;19940;-66
2023/07/31 11:00:39;;;;;;;;;;;15.60;92.10;;;;;;5094125;28;20022;-68
2023/07/31 11:03:11;;;;;;;;;;;15.60;92.50;;;;;;5112191;28;20028;-67
2023/07/31 11:05:48;;;;;;;;;;;15.50;92.70;;;;;;5094872;28;19915;-68
2023/07/31 11:08:16;;;;;;;;;;;15.50;93.00;;;;;;5104560;28;19955;-67
2023/07/31 11:10:44;;;;;;;;;;;15.40;92.90;;;;;;5109750;28;19915;-67
2023/07/31 11:13:11;;;;;;;;;;;15.40;92.80;;;;;;5108398;28;20313;-67
2023/07/31 11:15:37;;;;;;;;;;;15.30;92.70;;;;;;5107797;28;19916;-67
2023/07/31 11:18:05;;;;;;;;;;;15.20;93.00;;;;;;5100153;28;19937;-67
2023/07/31 11:20:36;;;;;;;;;;;15.20;92.70;;;;;;5102850;28;19928;-67
2023/07/31 11:23:03;;;;;;;;;;;15.10;92.40;;;;;;5111908;28;19907;-67
2023/07/31 11:25:31;;;;;;;;;;;15.00;92.70;;;;;;5109465;28;19912;-67
2023/07/31 11:28:02;;;;;;;;;;;15.00;92.70;;;;;;5110396;28;19916;-66
2023/07/31 11:30:29;;;;;;;;;;;15.00;92.90;;;;;;5112071;28;19908;-68
2023/07/31 11:32:56;;;;;;;;;;;14.90;93.10;;;;;;5110941;28;19923;-66
2023/07/31 11:35:23;;;;;;;;;;;14.90;93.30;;;;;;5110720;28;20383;-67
2023/07/31 11:37:49;;;;;;;;;;;14.90;92.90;;;;;;5111282;28;19912;-67
2023/07/31 11:40:16;;;;;;;;;;;14.70;92.40;;;;;;5111216;28;20486;-67
2023/07/31 11:42:43;;;;;;;;;;;14.70;92.60;;;;;;5110663;28;20002;-66
2023/07/31 11:45:10;;;;;;;;;;;14.70;92.70;;;;;;5111678;28;19947;-66
2023/07/31 11:47:37;;;;;;;;;;;14.70;92.60;;;;;;5111800;28;19912;-66
2023/07/31 11:50:05;;;;;;;;;;;14.60;92.20;;;;;;5111980;28;19915;-67
2023/07/31 11:52:38;;;;;;;;;;;14.60;92.20;;;;;;5111369;28;19908;-67
2023/07/31 11:55:06;;;;;;;;;;;14.60;92.60;;;;;;5111204;28;20378;-66
2023/07/31 11:57:33;;;;;;;;;;;14.60;92.60;;;;;;5111928;28;19908;-66
2023/07/31 12:00:00;;;;;;;;;;;14.50;92.50;;;;;;5111684;28;20032;-66
2023/07/31 12:02:28;;;;;;;;;;;14.50;92.30;;;;;;5103627;28;19912;-67
2023/07/31 12:04:55;;;;;;;;;;;14.50;92.60;;;;;;5112831;28;19907;-67
2023/07/31 12:07:21;;;;;;;;;;;14.50;92.20;;;;;;5110777;28;19915;-67
2023/07/31 12:09:52;;;;;;;;;;;14.50;92.30;;;;;;5094254;28;19912;-67
2023/07/31 12:12:24;;;;;;;;;;;14.50;92.50;;;;;;5095135;28;19908;-66
2023/07/31 12:14:51;;;;;;;;;;;14.50;92.50;;;;;;5112535;28;19911;-67
2023/07/31 12:17:20;;;;;;;;;;;14.40;92.80;;;;;;5112254;28;19911;-66
2023/07/31 12:19:48;;;;;;;;;;;14.40;92.80;;;;;;5112381;28;19970;-67
2023/07/31 12:22:16;;;;;;;;;;;14.40;93.10;;;;;;5112723;28;19907;-67
2023/07/31 12:24:46;;;;;;;;;;;14.40;92.70;;;;;;5112408;28;19915;-67
2023/07/31 12:27:14;;;;;;;;;;;14.40;92.70;;;;;;5112506;28;19911;-68
2023/07/31 12:29:43;;;;;;;;;;;14.30;92.60;;;;;;5112264;28;20408;-68
2023/07/31 12:32:23;;;;;;;;;;;14.30;92.80;;;;;;5113122;28;19908;-68
2023/07/31 12:34:50;;;;;;;;;;;14.30;93.30;;;;;;5116162;28;19965;-68
2023/07/31 12:37:17;;;;;;;;;;;14.30;93.60;;;;;;5111392;28;19916;-68
2023/07/31 12:39:44;;;;;;;;;;;14.20;93.80;;;;;;5116215;28;20329;-67
2023/07/31 12:42:10;;;;;;;;;;;14.20;94.20;;;;;;5116276;28;19943;-68
2023/07/31 12:44:37;;;;;;;;;;;14.20;94.50;;;;;;5119111;27;20264;-68
2023/07/31 12:47:04;;;;;;;;;;;14.00;94.40;;;;;;5113745;28;19946;-68
2023/07/31 12:49:30;;;;;;;;;;;14.00;94.50;;;;;;5115518;28;19953;-67
2023/07/31 12:51:57;;;;;;;;;;;13.90;94.30;;;;;;5109685;28;20039;-67
2023/07/31 12:54:23;;;;;;;;;;;13.90;94.80;;;;;;5095383;28;19908;-68
2023/07/31 12:56:50;;;;;;;;;;;13.90;94.50;;;;;;5095499;28;19914;-69
2023/07/31 12:59:17;;;;;;;;;;;13.90;94.70;;;;;;5116029;28;19912;-67
2023/07/31 13:01:44;;;;;;;;;;;13.80;94.60;;;;;;5116101;28;19908;-67
2023/07/31 13:04:10;;;;;;;;;;;13.80;94.80;;;;;;5116073;28;19907;-67
2023/07/31 13:06:37;;;;;;;;;;;13.80;94.90;;;;;;5116195;28;19912;-68
2023/07/31 13:09:04;;;;;;;;;;;13.70;95.20;;;;;;5105335;28;19919;-67
2023/07/31 13:11:30;;;;;;;;;;;13.70;95.30;;;;;;5095096;28;19908;-67
2023/07/31 13:13:57;;;;;;;;;;;13.70;95.50;;;;;;5095475;28;20463;-67
2023/07/31 13:16:24;;;;;;;;;;;13.70;95.60;;;;;;5095360;28;19908;-67
2023/07/31 13:18:51;;;;;;;;;;;13.60;95.70;;;;;;5095309;28;19915;-67
2023/07/31 13:21:18;;;;;;;;;;;13.50;95.70;;;;;;5095006;28;19962;-67
2023/07/31 13:23:45;;;;;;;;;;;13.50;96.00;;;;;;5095056;28;19955;-67
2023/07/31 13:26:11;;;;;;;;;;;13.50;96.20;;;;;;5107290;28;19939;-67
2023/07/31 13:28:38;;;;;;;;;;;13.50;96.10;;;;;;5115668;28;19907;-67
2023/07/31 13:31:05;;;;;;;;;;;13.50;96.40;;;;;;5115788;28;19907;-67
2023/07/31 13:33:31;;;;;;;;;;;13.40;96.30;;;;;;5115395;28;19908;-68
2023/07/31 13:35:58;;;;;;;;;;;13.40;96.60;;;;;;5115418;28;19908;-68
2023/07/31 13:38:25;;;;;;;;;;;13.40;96.70;;;;;;5102899;28;20045;-68
2023/07/31 13:40:52;;;;;;;;;;;13.40;97.20;;;;;;5094718;28;20365;-67
2023/07/31 13:43:18;;;;;;;;;;;13.30;96.80;;;;;;5094064;28;19920;-66
2023/07/31 13:45:45;;;;;;;;;;;13.30;97.10;;;;;;5098028;28;20280;-67
2023/07/31 13:48:11;;;;;;;;;;;13.30;97.10;;;;;;5113958;28;20288;-68
2023/07/31 13:50:38;;;;;;;;;;;13.20;97.30;;;;;;5114640;28;19950;-67
2023/07/31 13:53:04;;;;;;;;;;;13.20;97.70;;;;;;5114735;28;20424;-67
2023/07/31 13:55:31;;;;;;;;;;;13.10;97.40;;;;;;5102465;28;19916;-67
2023/07/31 13:57:58;;;;;;;;;;;13.00;97.60;;;;;;5115017;28;20280;-66
2023/07/31 14:00:24;;;;;;;;;;;12.90;97.80;;;;;;5114925;28;19922;-66
2023/07/31 14:02:51;;;;;;;;;;;12.90;98.10;;;;;;5114744;28;19908;-66
2023/07/31 14:05:17;;;;;;;;;;;12.90;98.10;;;;;;5114958;28;19942;-67
2023/07/31 14:07:44;;;;;;;;;;;12.80;98.10;;;;;;5114961;28;19914;-67
2023/07/31 14:10:11;;;;;;;;;;;12.70;98.00;;;;;;5114777;28;19908;-67
2023/07/31 14:12:37;;;;;;;;;;;12.80;98.30;;;;;;5114453;28;19956;-67
2023/07/31 14:15:04;;;;;;;;;;;12.80;98.40;;;;;;5095892;28;19953;-67
2023/07/31 14:17:31;;;;;;;;;;;12.80;98.30;;;;;;5094486;28;19908;-67